Time;durP1;ratioP1;P1;durP2;ratioP2;P2;SDS_P1;SDS_P2;PMS_P1;PMS_P2;Temp;Humidity;BMP_temperature;BMP_pressure;BME280_temperature;BME280_humidity;BME280_pressure;Samples;Min_cycle;Max_cycle;Signal;HPM_P1;HPM_P2
2024/03/10 00:00:54;;;;;;;7.40;4.13;;;;;9.80;98990.00;;;;9924944;29;20242;-78
2024/03/10 00:05:56;;;;;;;5.73;4.13;;;;;9.80;98978.00;;;;9933705;29;20276;-77
2024/03/10 00:10:57;;;;;;;8.40;4.63;;;;;9.90;98983.00;;;;9954022;29;20686;-77
2024/03/10 00:15:59;;;;;;;8.17;5.30;;;;;9.90;98982.00;;;;9935485;29;20978;-77
2024/03/10 00:21:01;;;;;;;8.07;5.43;;;;;9.90;98988.00;;;;9925249;29;20234;-77
2024/03/10 00:26:05;;;;;;;7.73;5.20;;;;;9.90;98983.00;;;;9957637;29;20226;-78
2024/03/10 00:31:09;;;;;;;7.83;5.73;;;;;10.00;98995.00;;;;9921654;29;20266;-78
2024/03/10 00:36:10;;;;;;;11.87;6.53;;;;;10.10;98993.00;;;;9922122;29;20230;-78
2024/03/10 00:41:11;;;;;;;12.97;8.40;;;;;10.10;98998.00;;;;9950077;29;20299;-77
2024/03/10 00:46:12;;;;;;;14.33;8.67;;;;;10.20;98993.00;;;;9966514;29;20728;-78
2024/03/10 00:51:13;;;;;;;16.87;9.90;;;;;10.30;98974.00;;;;9948669;29;20309;-78
2024/03/10 00:56:18;;;;;;;14.17;9.43;;;;;10.30;98965.00;;;;9941633;29;20237;-77
2024/03/10 01:01:19;;;;;;;16.03;10.73;;;;;10.30;98956.00;;;;9916236;29;20750;-77
2024/03/10 01:06:21;;;;;;;16.27;9.93;;;;;10.20;98947.00;;;;9931143;29;20254;-75
2024/03/10 01:11:23;;;;;;;15.27;10.43;;;;;10.30;98951.00;;;;9937897;29;20299;-76
2024/03/10 01:16:24;;;;;;;16.47;10.63;;;;;10.30;98932.00;;;;9941150;29;20317;-76
2024/03/10 01:21:25;;;;;;;14.73;10.40;;;;;10.20;98926.00;;;;9933677;29;20253;-77
2024/03/10 01:26:26;;;;;;;17.93;11.53;;;;;10.10;98934.00;;;;9933590;29;20275;-76
2024/03/10 01:31:28;;;;;;;16.53;11.47;;;;;10.10;98923.00;;;;9932508;29;20268;-78
2024/03/10 01:36:29;;;;;;;15.17;10.60;;;;;10.20;98939.00;;;;9932882;29;20743;-77
2024/03/10 01:41:33;;;;;;;16.80;11.43;;;;;10.10;98948.00;;;;9949478;29;20328;-76
2024/03/10 01:46:36;;;;;;;17.47;11.80;;;;;10.20;98942.00;;;;9947586;29;20237;-77
2024/03/10 01:51:41;;;;;;;15.40;11.00;;;;;10.20;98943.00;;;;9924771;29;20238;-77
2024/03/10 01:56:42;;;;;;;18.60;12.80;;;;;10.20;98945.00;;;;9926709;29;20326;-76
2024/03/10 02:01:46;;;;;;;15.93;11.57;;;;;10.20;98921.00;;;;9931554;29;20295;-78
2024/03/10 02:06:49;;;;;;;17.23;10.87;;;;;10.20;98916.00;;;;9922595;29;20230;-78
2024/03/10 02:11:51;;;;;;;13.90;11.03;;;;;10.20;98929.00;;;;9916117;29;20237;-77
2024/03/10 02:16:53;;;;;;;16.47;11.17;;;;;10.20;98913.00;;;;9935224;29;20277;-77
2024/03/10 02:21:57;;;;;;;17.07;11.40;;;;;10.10;98903.00;;;;9931573;29;20689;-76
2024/03/10 02:26:59;;;;;;;17.03;11.83;;;;;10.10;98889.00;;;;9937171;29;20230;-78
2024/03/10 02:48:01;;;;;;;16.87;11.90;;;;;10.20;98894.00;;;;9925495;29;20237;-79
2024/03/10 02:53:06;;;;;;;17.43;11.53;;;;;10.10;98920.00;;;;9928548;29;20777;-77
2024/03/10 02:58:07;;;;;;;16.83;11.07;;;;;10.10;98902.00;;;;9935858;29;20237;-79
2024/03/10 03:03:09;;;;;;;17.57;11.00;;;;;10.10;98898.00;;;;9919470;29;20264;-78
2024/03/10 03:08:11;;;;;;;15.23;10.97;;;;;10.00;98879.00;;;;9909735;29;20237;-77
2024/03/10 03:13:12;;;;;;;18.40;11.17;;;;;9.90;98873.00;;;;9952472;29;20237;-80
2024/03/10 03:18:14;;;;;;;18.47;11.80;;;;;9.90;98869.00;;;;9963085;29;20685;-77
2024/03/10 03:23:15;;;;;;;14.23;10.33;;;;;9.90;98881.00;;;;9939443;29;21016;-78
2024/03/10 03:28:17;;;;;;;16.70;10.83;;;;;9.90;98874.00;;;;9930936;29;20242;-84
2024/03/10 03:33:20;;;;;;;17.07;12.43;;;;;9.80;98863.00;;;;9925924;29;20258;-86
2024/03/10 03:38:21;;;;;;;16.97;11.10;;;;;9.80;98871.00;;;;9929410;29;20942;-83
2024/03/10 03:43:22;;;;;;;16.10;10.87;;;;;9.70;98863.00;;;;9956683;29;20713;-85
2024/03/10 03:48:24;;;;;;;14.33;10.27;;;;;9.70;98855.00;;;;9947403;29;20225;-83
2024/03/10 03:53:26;;;;;;;17.67;10.87;;;;;9.60;98859.00;;;;9935857;29;20270;-84
2024/03/10 03:58:27;;;;;;;16.83;10.73;;;;;9.60;98857.00;;;;9936596;29;20226;-84
2024/03/10 04:03:29;;;;;;;17.10;11.23;;;;;9.50;98839.00;;;;9942673;29;20241;-84
2024/03/10 04:08:30;;;;;;;15.87;11.03;;;;;9.50;98869.00;;;;9926579;29;20261;-84
2024/03/10 04:13:31;;;;;;;16.70;11.00;;;;;9.50;98862.00;;;;9935282;29;20824;-84
2024/03/10 04:18:34;;;;;;;15.73;10.67;;;;;9.40;98845.00;;;;9944699;29;20317;-84
2024/03/10 04:23:36;;;;;;;13.53;10.10;;;;;9.40;98826.00;;;;9941757;29;20267;-83
2024/03/10 04:28:38;;;;;;;17.97;11.17;;;;;9.30;98816.00;;;;9927016;29;20237;-84
2024/03/10 04:33:39;;;;;;;14.83;10.87;;;;;9.30;98847.00;;;;9931975;29;20242;-84
2024/03/10 04:38:43;;;;;;;16.17;11.50;;;;;9.20;98828.00;;;;9916989;29;20309;-81
2024/03/10 04:43:44;;;;;;;21.30;12.10;;;;;9.20;98821.00;;;;9933722;29;20265;-81
2024/03/10 04:48:57;;;;;;;16.63;11.10;;;;;9.20;98822.00;;;;9939248;29;20226;-81
2024/03/10 04:53:58;;;;;;;16.23;11.13;;;;;9.20;98824.00;;;;9943101;29;20901;-81
2024/03/10 04:58:59;;;;;;;16.03;10.73;;;;;9.20;98832.00;;;;9945748;29;20318;-81
2024/03/10 05:04:01;;;;;;;14.03;10.37;;;;;9.10;98822.00;;;;9916578;29;20238;-81
2024/03/10 05:09:03;;;;;;;14.90;10.80;;;;;9.10;98824.00;;;;9948163;29;20249;-82
2024/03/10 05:14:04;;;;;;;16.20;10.90;;;;;9.00;98832.00;;;;9933261;29;20293;-80
2024/03/10 05:19:07;;;;;;;13.93;9.93;;;;;9.00;98845.00;;;;9939438;29;20242;-81
2024/03/10 05:24:08;;;;;;;13.30;9.47;;;;;9.00;98830.00;;;;9936724;29;20954;-83
2024/03/10 05:29:09;;;;;;;17.80;11.33;;;;;8.90;98821.00;;;;9948209;29;20234;-81
2024/03/10 05:34:10;;;;;;;15.80;10.93;;;;;8.80;98832.00;;;;9936309;29;20321;-81
2024/03/10 05:39:11;;;;;;;16.30;10.93;;;;;8.70;98839.00;;;;9953434;29;20317;-81
2024/03/10 05:44:14;;;;;;;15.53;11.00;;;;;8.60;98852.00;;;;9932196;29;20237;-81
2024/03/10 05:49:15;;;;;;;14.03;10.23;;;;;8.60;98849.00;;;;9910008;29;20287;-86
2024/03/10 05:54:16;;;;;;;16.87;11.33;;;;;8.50;98854.00;;;;9941673;29;20226;-86
2024/03/10 05:59:18;;;;;;;16.97;10.70;;;;;8.40;98825.00;;;;9937381;29;20644;-85
2024/03/10 06:04:19;;;;;;;14.47;10.83;;;;;8.30;98846.00;;;;9941864;29;20238;-85
2024/03/10 06:09:20;;;;;;;16.37;11.80;;;;;8.20;98844.00;;;;9950948;29;20314;-85
2024/03/10 06:14:21;;;;;;;17.73;11.57;;;;;8.20;98847.00;;;;9955597;29;20596;-86
2024/03/10 06:30:05;;;;;;;17.70;11.37;;;;;8.20;98868.00;;;;9962083;29;20241;-86
2024/03/10 06:35:07;;;;;;;17.97;12.23;;;;;8.20;98868.00;;;;9926617;29;20286;-84
2024/03/10 06:40:09;;;;;;;20.47;11.57;;;;;8.20;98860.00;;;;9941918;29;20248;-86
2024/03/10 06:45:10;;;;;;;18.80;12.30;;;;;8.20;98874.00;;;;9952744;29;20226;-86
2024/03/10 06:50:12;;;;;;;17.63;12.03;;;;;8.20;98891.00;;;;9950904;29;20294;-85
2024/03/10 06:55:14;;;;;;;18.97;12.93;;;;;8.30;98889.00;;;;9925516;29;20244;-86
2024/03/10 07:00:17;;;;;;;15.80;11.40;;;;;8.40;98891.00;;;;9945520;29;20245;-82
2024/03/10 07:05:18;;;;;;;18.17;11.30;;;;;8.40;98901.00;;;;9931241;29;21194;-81
2024/03/10 07:10:20;;;;;;;17.17;11.97;;;;;8.50;98910.00;;;;9946308;29;20320;-81
2024/03/10 07:15:22;;;;;;;16.33;11.40;;;;;8.60;98910.00;;;;9938881;29;20234;-82
2024/03/10 07:20:24;;;;;;;30.53;19.73;;;;;8.70;98919.00;;;;9918746;29;20239;-82
2024/03/10 07:25:25;;;;;;;20.53;12.57;;;;;8.80;98922.00;;;;9953778;29;20321;-82
2024/03/10 07:30:27;;;;;;;17.07;12.00;;;;;9.00;98909.00;;;;9931050;29;20237;-81
2024/03/10 07:35:28;;;;;;;21.47;14.03;;;;;9.10;98906.00;;;;9962418;29;20234;-81
2024/03/10 07:40:29;;;;;;;17.77;13.87;;;;;9.20;98910.00;;;;9940672;29;20241;-81
2024/03/10 07:45:32;;;;;;;22.00;13.77;;;;;9.20;98928.00;;;;9944867;29;20234;-82
2024/03/10 07:50:35;;;;;;;26.10;16.10;;;;;9.30;98938.00;;;;9928199;29;20238;-81
2024/03/10 07:55:36;;;;;;;30.53;17.80;;;;;9.40;98939.00;;;;9939956;29;20283;-81
2024/03/10 08:00:38;;;;;;;23.53;16.23;;;;;9.60;98941.00;;;;9917640;29;20234;-82
2024/03/10 08:05:39;;;;;;;25.40;16.43;;;;;9.90;98957.00;;;;9928131;29;20646;-82
2024/03/10 08:10:40;;;;;;;16.80;11.93;;;;;10.00;98953.00;;;;9925684;29;20285;-79
2024/03/10 08:15:41;;;;;;;16.13;11.83;;;;;10.20;98954.00;;;;9944409;29;20667;-80
2024/03/10 08:20:43;;;;;;;18.27;11.87;;;;;10.40;98958.00;;;;9954478;29;20370;-80
2024/03/10 08:25:45;;;;;;;19.47;13.07;;;;;10.60;98967.00;;;;9921811;29;20234;-79
2024/03/10 08:30:47;;;;;;;16.20;11.13;;;;;10.70;98959.00;;;;9963942;29;20828;-80
2024/03/10 08:35:48;;;;;;;17.63;11.83;;;;;10.80;98945.00;;;;9934802;29;20717;-79
2024/03/10 08:40:49;;;;;;;20.73;12.00;;;;;10.80;98943.00;;;;9969300;29;20814;-79
2024/03/10 08:45:51;;;;;;;18.83;12.10;;;;;10.80;98934.00;;;;9922511;29;20302;-79
2024/03/10 08:50:52;;;;;;;16.47;11.30;;;;;11.00;98952.00;;;;9936075;29;20392;-80
2024/03/10 08:55:53;;;;;;;16.67;12.10;;;;;11.10;98965.00;;;;9937238;29;20241;-79
2024/03/10 09:00:55;;;;;;;17.83;11.93;;;;;11.10;98951.00;;;;9938395;29;20238;-79
2024/03/10 09:05:56;;;;;;;19.30;11.80;;;;;11.20;98965.00;;;;9978001;29;20221;-79
2024/03/10 09:10:59;;;;;;;16.07;11.50;;;;;11.30;98966.00;;;;9951585;29;20309;-80
2024/03/10 09:16:08;;;;;;;18.27;12.40;;;;;11.50;98959.00;;;;9917775;29;20720;-79
2024/03/10 09:21:10;;;;;;;18.70;12.73;;;;;11.60;98960.00;;;;9938143;29;20266;-78
2024/03/10 09:26:13;;;;;;;15.20;11.37;;;;;11.70;98953.00;;;;9940840;29;20238;-81
2024/03/10 09:31:14;;;;;;;18.10;12.07;;;;;12.00;98955.00;;;;9935988;29;20230;-80
2024/03/10 09:36:16;;;;;;;16.30;12.33;;;;;12.20;98965.00;;;;9940449;29;20230;-79
2024/03/10 09:41:17;;;;;;;17.57;12.90;;;;;12.10;98977.00;;;;9942896;29;20328;-81
2024/03/10 09:46:20;;;;;;;17.03;12.63;;;;;12.20;98971.00;;;;9955587;29;20380;-80
2024/03/10 09:51:21;;;;;;;17.87;12.13;;;;;12.30;98971.00;;;;9933768;29;20696;-79
2024/03/10 09:56:22;;;;;;;15.23;11.50;;;;;12.30;98971.00;;;;9931020;29;20230;-81
2024/03/10 10:01:28;;;;;;;14.07;11.37;;;;;12.30;98973.00;;;;9964995;29;20252;-79
2024/03/10 10:06:32;;;;;;;15.03;10.63;;;;;12.30;98958.00;;;;9944958;29;20244;-79
2024/03/10 10:11:34;;;;;;;15.00;11.30;;;;;12.20;98966.00;;;;9949701;29;20305;-79
2024/03/10 10:16:38;;;;;;;15.73;11.60;;;;;12.00;98968.00;;;;9939745;29;20316;-80
2024/03/10 10:21:51;;;;;;;16.03;11.43;;;;;12.10;98958.00;;;;9940802;29;20238;-79
2024/03/10 10:26:58;;;;;;;14.70;11.17;;;;;11.90;98969.00;;;;9960810;29;21026;-79
2024/03/10 10:32:06;;;;;;;15.20;10.97;;;;;12.00;98957.00;;;;9942192;29;20704;-85
2024/03/10 10:37:07;;;;;;;16.27;11.20;;;;;12.00;98940.00;;;;9966915;29;20235;-87
2024/03/10 10:42:11;;;;;;;15.77;11.40;;;;;11.80;98935.00;;;;9939147;29;20236;-88
2024/03/10 10:47:23;;;;;;;15.63;11.07;;;;;11.50;98923.00;;;;9934580;29;20256;-87
2024/03/10 10:52:24;;;;;;;18.33;12.27;;;;;11.70;98936.00;;;;9959837;29;20309;-85
2024/03/10 10:57:25;;;;;;;16.47;11.70;;;;;11.80;98933.00;;;;9927945;29;20266;-86
2024/03/10 11:02:27;;;;;;;14.77;11.50;;;;;11.90;98932.00;;;;9951110;29;20973;-85
2024/03/10 11:07:30;;;;;;;16.13;11.63;;;;;12.10;98930.00;;;;9933803;29;20237;-86
2024/03/10 11:12:35;;;;;;;19.13;11.90;;;;;12.30;98953.00;;;;9935590;29;20258;-86
2024/03/10 11:17:38;;;;;;;16.20;11.70;;;;;12.50;98983.00;;;;9945107;29;20230;-84
2024/03/10 11:22:52;;;;;;;18.23;12.23;;;;;12.50;98967.00;;;;9910672;29;20241;-86
2024/03/10 11:27:53;;;;;;;15.60;11.57;;;;;12.70;98951.00;;;;9916140;29;20321;-85
2024/03/10 11:33:06;;;;;;;18.53;13.73;;;;;12.80;98978.00;;;;9907677;29;20363;-86
2024/03/10 11:38:09;;;;;;;18.23;12.77;;;;;12.80;98963.00;;;;9952684;29;20294;-83
2024/03/10 11:43:13;;;;;;;18.37;12.50;;;;;12.60;98979.00;;;;9913116;29;20685;-83
2024/03/10 11:48:16;;;;;;;16.23;13.00;;;;;12.80;98946.00;;;;9905667;29;20234;-83
2024/03/10 11:53:18;;;;;;;15.67;12.40;;;;;13.20;98919.00;;;;9919101;29;20237;-84
2024/03/10 11:58:19;;;;;;;16.33;11.23;;;;;13.40;98894.00;;;;9939204;29;20230;-85
2024/03/10 12:03:21;;;;;;;16.70;11.77;;;;;13.20;98890.00;;;;9915888;29;20261;-84
2024/03/10 12:08:26;;;;;;;19.43;12.77;;;;;13.50;98873.00;;;;9916340;29;20234;-83
2024/03/10 12:13:27;;;;;;;17.43;13.03;;;;;13.50;98897.00;;;;9944851;29;20690;-84
2024/03/10 12:18:29;;;;;;;18.07;14.53;;;;;13.40;98898.00;;;;9927312;29;20290;-84
2024/03/10 12:23:34;;;;;;;18.33;14.27;;;;;13.60;98894.00;;;;9935361;29;20934;-83
2024/03/10 12:28:37;;;;;;;21.80;13.77;;;;;13.80;98878.00;;;;9941253;29;20381;-84
2024/03/10 12:33:38;;;;;;;18.63;14.23;;;;;13.70;98868.00;;;;9913910;29;20313;-82
2024/03/10 12:38:40;;;;;;;20.63;14.47;;;;;14.10;98883.00;;;;9920417;29;21374;-83
2024/03/10 12:43:45;;;;;;;18.10;13.52;;;;;14.20;98892.00;;;;9973649;29;20230;-84
2024/03/10 12:48:47;;;;;;;20.13;13.98;;;;;14.30;98901.00;;;;9961866;29;20217;-83
2024/03/10 12:53:49;;;;;;;16.90;13.43;;;;;14.40;98940.00;;;;9951876;29;20237;-85
2024/03/10 12:58:51;;;;;;;16.90;13.23;;;;;14.40;98988.00;;;;9945568;29;20238;-86
2024/03/10 13:03:53;;;;;;;16.48;13.35;;;;;14.70;98995.00;;;;9955900;29;20234;-85
2024/03/10 13:08:54;;;;;;;20.55;13.70;;;;;15.10;98998.00;;;;9930256;29;20911;-86
2024/03/10 13:13:57;;;;;;;17.73;13.55;;;;;15.40;98991.00;;;;9966391;29;20240;-86
2024/03/10 13:19:00;;;;;;;18.35;13.70;;;;;15.70;98983.00;;;;9928539;29;20725;-86
2024/03/10 13:24:01;;;;;;;16.27;12.88;;;;;16.20;98994.00;;;;9931821;29;20234;-86
2024/03/10 13:29:03;;;;;;;16.60;13.55;;;;;17.10;99000.00;;;;9952948;29;20576;-87
2024/03/10 13:34:05;;;;;;;16.10;13.20;;;;;17.30;99005.00;;;;9951233;29;20229;-88
2024/03/10 13:39:10;;;;;;;16.58;12.95;;;;;17.90;99011.00;;;;9970123;29;20237;-83
2024/03/10 13:44:11;;;;;;;17.20;13.13;;;;;17.60;99015.00;;;;9975274;29;20233;-87
2024/03/10 13:49:12;;;;;;;16.83;13.38;;;;;16.70;99005.00;;;;9942874;29;20230;-88
2024/03/10 13:54:14;;;;;;;16.55;13.40;;;;;16.00;99017.00;;;;9933594;29;20227;-89
2024/03/10 13:59:15;;;;;;;16.73;13.48;;;;;15.90;99001.00;;;;9943389;29;20233;-88
2024/03/10 14:04:16;;;;;;;19.25;13.82;;;;;15.80;99001.00;;;;9968824;29;20319;-87
2024/03/10 14:09:18;;;;;;;16.40;14.10;;;;;15.50;98992.00;;;;9932611;29;20249;-86
2024/03/10 14:14:19;;;;;;;16.40;13.10;;;;;15.40;98992.00;;;;9943313;29;20234;-83
2024/03/10 14:19:20;;;;;;;16.17;13.05;;;;;15.40;98983.00;;;;9928165;29;20244;-87
2024/03/10 14:24:22;;;;;;;20.83;14.63;;;;;15.00;98995.00;;;;9966393;29;20291;-86
2024/03/10 14:29:24;;;;;;;18.60;14.35;;;;;14.70;98994.00;;;;9915075;29;20234;-86
2024/03/10 14:34:26;;;;;;;18.20;13.75;;;;;14.70;98978.00;;;;9960594;29;20238;-87
2024/03/10 14:39:27;;;;;;;20.05;15.15;;;;;14.70;98976.00;;;;9965911;29;20230;-82
2024/03/10 14:44:28;;;;;;;18.48;13.88;;;;;14.50;98975.00;;;;9972139;29;20234;-86
2024/03/10 14:49:29;;;;;;;21.05;14.43;;;;;14.10;98970.00;;;;9951086;29;20241;-83
2024/03/10 14:54:31;;;;;;;18.80;14.15;;;;;13.80;98974.00;;;;9936435;29;20246;-88
2024/03/10 14:59:32;;;;;;;22.02;14.40;;;;;13.80;98961.00;;;;9925772;29;20238;-84
2024/03/10 15:04:33;;;;;;;21.20;15.38;;;;;13.70;98950.00;;;;9940884;29;20241;-86
2024/03/10 15:09:34;;;;;;;22.10;15.38;;;;;13.70;98965.00;;;;9948166;29;20286;-79
2024/03/10 15:14:35;;;;;;;20.67;14.33;;;;;13.60;98968.00;;;;9904614;29;20352;-80
2024/03/10 15:19:37;;;;;;;20.13;15.23;;;;;13.50;98976.00;;;;9940917;29;20248;-80
2024/03/10 15:24:38;;;;;;;21.83;15.05;;;;;13.60;98979.00;;;;9926458;29;20276;-80
2024/03/10 15:29:41;;;;;;;20.95;15.13;;;;;13.60;98971.00;;;;9940379;29;20265;-80
2024/03/10 15:34:42;;;;;;;19.70;14.57;;;;;13.20;98972.00;;;;9934439;29;20626;-81
2024/03/10 15:39:46;;;;;;;21.53;15.37;;;;;13.00;98983.00;;;;9923490;29;20698;-79
2024/03/10 15:44:50;;;;;;;19.37;14.30;;;;;12.90;98990.00;;;;9956026;29;20241;-80
2024/03/10 15:49:51;;;;;;;18.70;14.53;;;;;12.70;98994.00;;;;9942834;29;20269;-80
2024/03/10 15:54:53;;;;;;;22.83;14.50;;;;;12.60;98996.00;;;;9930135;29;20238;-80
2024/03/10 15:59:54;;;;;;;22.37;14.73;;;;;12.60;99004.00;;;;9940596;29;20298;-80
2024/03/10 16:04:55;;;;;;;19.73;15.13;;;;;12.50;99020.00;;;;9938104;29;20321;-79
2024/03/10 16:09:58;;;;;;;20.53;14.47;;;;;12.50;99026.00;;;;9918999;29;20233;-79
2024/03/10 16:14:59;;;;;;;23.37;15.63;;;;;12.40;99040.00;;;;9918385;29;20234;-80
2024/03/10 16:20:00;;;;;;;26.70;15.87;;;;;12.40;99035.00;;;;9936561;29;20301;-81
2024/03/10 16:25:03;;;;;;;19.63;15.00;;;;;12.20;99041.00;;;;9935729;29;20230;-78
2024/03/10 16:30:09;;;;;;;22.30;15.20;;;;;12.10;99049.00;;;;9947519;29;20222;-77
2024/03/10 16:35:11;;;;;;;20.63;15.23;;;;;12.00;99049.00;;;;9923690;29;20230;-77
2024/03/10 16:40:15;;;;;;;24.27;15.53;;;;;11.80;99041.00;;;;9938427;29;20241;-81
2024/03/10 16:45:18;;;;;;;20.53;15.90;;;;;11.60;99056.00;;;;9912340;29;20226;-77
2024/03/10 16:50:26;;;;;;;24.93;16.83;;;;;11.50;99060.00;;;;9925985;29;20685;-80
2024/03/10 16:55:28;;;;;;;25.03;16.03;;;;;11.40;99057.00;;;;9930755;29;20295;-78
2024/03/10 17:00:32;;;;;;;23.27;16.63;;;;;11.20;99053.00;;;;9941058;29;20267;-82
2024/03/10 17:05:38;;;;;;;25.53;17.33;;;;;11.00;99053.00;;;;9932647;29;20956;-79
2024/03/10 17:10:40;;;;;;;26.03;19.20;;;;;10.70;99042.00;;;;9936114;29;20233;-80
2024/03/10 17:15:42;;;;;;;24.77;17.97;;;;;10.50;99050.00;;;;9951583;29;20264;-80
2024/03/10 17:20:43;;;;;;;26.90;17.23;;;;;10.40;99052.00;;;;9945509;29;20238;-80
2024/03/10 17:25:44;;;;;;;29.17;19.37;;;;;10.40;99051.00;;;;9930860;29;20235;-81
2024/03/10 17:30:46;;;;;;;28.67;19.07;;;;;10.30;99052.00;;;;9925208;29;20377;-79
2024/03/10 17:35:47;;;;;;;28.93;19.57;;;;;10.20;99044.00;;;;9911035;29;21002;-81
2024/03/10 17:40:50;;;;;;;28.87;20.17;;;;;10.00;99038.00;;;;9919268;29;20333;-79
2024/03/10 17:45:53;;;;;;;26.57;17.47;;;;;9.90;99038.00;;;;9932521;29;20661;-78
2024/03/10 17:50:54;;;;;;;27.17;16.83;;;;;9.80;99030.00;;;;9935344;29;20305;-78
2024/03/10 17:55:55;;;;;;;22.97;15.57;;;;;9.70;99042.00;;;;9918152;29;20257;-78
2024/03/10 18:00:57;;;;;;;19.23;13.33;;;;;9.60;99043.00;;;;9952618;29;20230;-78
2024/03/10 18:05:58;;;;;;;15.50;12.33;;;;;9.50;99039.00;;;;9935625;29;20242;-78
2024/03/10 18:10:59;;;;;;;15.97;11.13;;;;;9.50;99036.00;;;;9927842;29;20644;-79
2024/03/10 18:16:02;;;;;;;18.00;11.23;;;;;9.40;99065.00;;;;9931477;29;20238;-78
2024/03/10 18:21:05;;;;;;;29.50;21.57;;;;;9.40;99096.00;;;;9923633;29;20321;-77
2024/03/10 18:26:06;;;;;;;28.83;18.67;;;;;9.30;99084.00;;;;9938004;29;20234;-78
2024/03/10 18:31:07;;;;;;;27.27;19.07;;;;;9.30;99083.00;;;;9948340;29;20228;-78
2024/03/10 18:36:09;;;;;;;32.17;22.37;;;;;9.30;99069.00;;;;9935595;29;20362;-78
2024/03/10 18:41:10;;;;;;;33.77;21.43;;;;;9.10;99067.00;;;;9936154;29;20314;-83
2024/03/10 18:46:11;;;;;;;33.60;21.77;;;;;9.10;99077.00;;;;9931990;29;20225;-84
2024/03/10 18:51:13;;;;;;;30.47;19.80;;;;;9.00;99070.00;;;;9938308;29;20250;-84
2024/03/10 18:56:15;;;;;;;32.17;21.63;;;;;9.00;99093.00;;;;9933225;29;20241;-84
2024/03/10 19:01:17;;;;;;;33.50;21.83;;;;;9.00;99111.00;;;;9932342;29;20237;-83
2024/03/10 19:06:18;;;;;;;34.37;22.13;;;;;9.00;99150.00;;;;9927555;29;20257;-84
2024/03/10 19:11:20;;;;;;;32.87;22.63;;;;;9.00;99170.00;;;;9929233;29;20234;-83
2024/03/10 19:16:21;;;;;;;33.30;23.07;;;;;9.00;99175.00;;;;9944496;29;20230;-83
2024/03/10 19:21:22;;;;;;;31.90;23.30;;;;;9.00;99191.00;;;;9953662;29;20230;-83
2024/03/10 19:26:24;;;;;;;37.90;23.17;;;;;9.00;99182.00;;;;9948278;29;20229;-83
2024/03/10 19:31:25;;;;;;;30.83;21.00;;;;;9.00;99191.00;;;;9930079;29;20230;-84
2024/03/10 19:36:26;;;;;;;31.23;23.37;;;;;8.90;99183.00;;;;9927573;29;20332;-84
2024/03/10 19:41:32;;;;;;;32.77;21.63;;;;;8.90;99195.00;;;;9930657;29;20991;-83
2024/03/10 19:46:33;;;;;;;33.03;22.07;;;;;8.80;99208.00;;;;9942474;29;20234;-83
2024/03/10 19:51:34;;;;;;;27.50;20.97;;;;;8.80;99209.00;;;;9945232;29;20779;-82
2024/03/10 19:56:36;;;;;;;30.27;20.67;;;;;8.70;99214.00;;;;9946239;29;20328;-82
2024/03/10 20:01:37;;;;;;;35.37;23.27;;;;;8.70;99224.00;;;;9934132;29;20244;-82
2024/03/10 20:06:39;;;;;;;34.93;23.33;;;;;8.70;99233.00;;;;9912412;29;20275;-82
2024/03/10 20:11:40;;;;;;;36.57;24.43;;;;;8.70;99228.00;;;;9914435;29;20263;-82
2024/03/10 20:16:43;;;;;;;34.70;23.03;;;;;8.70;99242.00;;;;9956367;29;20234;-82
2024/03/10 20:21:44;;;;;;;32.83;22.80;;;;;8.70;99234.00;;;;9949959;29;20269;-83
2024/03/10 20:26:48;;;;;;;32.30;21.47;;;;;8.80;99246.00;;;;9944963;29;20761;-82
2024/03/10 20:31:49;;;;;;;30.43;20.80;;;;;8.90;99251.00;;;;9944592;29;20328;-82
2024/03/10 20:36:50;;;;;;;31.80;20.83;;;;;8.90;99260.00;;;;9942066;29;20348;-82
2024/03/10 20:41:51;;;;;;;29.17;20.07;;;;;9.00;99260.00;;;;9933721;29;20242;-82
2024/03/10 20:46:53;;;;;;;24.50;18.60;;;;;9.00;99246.00;;;;9942051;29;20238;-82
2024/03/10 20:51:54;;;;;;;25.27;18.57;;;;;9.00;99245.00;;;;9942651;29;20312;-82
2024/03/10 20:56:55;;;;;;;27.63;18.33;;;;;9.00;99241.00;;;;9924424;29;20297;-83
2024/03/10 21:01:57;;;;;;;26.40;17.57;;;;;9.00;99243.00;;;;9975263;29;20297;-85
2024/03/10 21:07:01;;;;;;;24.57;16.40;;;;;9.00;99248.00;;;;9934570;29;20237;-84
2024/03/10 21:12:04;;;;;;;21.13;16.63;;;;;9.10;99245.00;;;;9922129;29;20242;-84
2024/03/10 21:17:05;;;;;;;23.53;17.30;;;;;9.10;99248.00;;;;9949736;29;20924;-84
2024/03/10 21:22:08;;;;;;;23.13;16.47;;;;;9.10;99240.00;;;;9932140;29;20280;-83
2024/03/10 21:27:09;;;;;;;27.37;18.33;;;;;9.10;99244.00;;;;9915229;29;20309;-85
2024/03/10 21:32:11;;;;;;;23.50;18.07;;;;;9.20;99234.00;;;;9942883;29;20238;-85
2024/03/10 21:37:12;;;;;;;25.63;18.53;;;;;9.20;99250.00;;;;9951078;29;20230;-84
2024/03/10 21:42:13;;;;;;;23.57;18.60;;;;;9.20;99250.00;;;;9909202;29;20317;-84
2024/03/10 21:47:14;;;;;;;25.77;19.17;;;;;9.30;99247.00;;;;9940206;29;20234;-83
2024/03/10 21:52:15;;;;;;;25.93;19.37;;;;;9.30;99249.00;;;;9973893;29;20329;-82
2024/03/10 21:57:17;;;;;;;31.00;20.97;;;;;9.30;99264.00;;;;9945137;29;20299;-82
2024/03/10 22:02:18;;;;;;;29.93;19.27;;;;;9.30;99276.00;;;;9955115;29;20230;-82
2024/03/10 22:07:19;;;;;;;27.73;19.13;;;;;9.30;99264.00;;;;9946487;29;20234;-79
2024/03/10 22:12:21;;;;;;;30.73;20.87;;;;;9.30;99276.00;;;;9919599;29;20268;-80
2024/03/10 22:17:22;;;;;;;30.63;20.17;;;;;9.30;99272.00;;;;9932557;29;20298;-79
2024/03/10 22:22:24;;;;;;;26.17;19.37;;;;;9.20;99281.00;;;;9934006;29;20245;-80
2024/03/10 22:27:25;;;;;;;28.03;19.97;;;;;9.20;99277.00;;;;9923674;29;20230;-80
2024/03/10 22:32:26;;;;;;;28.23;20.73;;;;;9.20;99271.00;;;;9927088;29;20363;-81
2024/03/10 22:37:27;;;;;;;31.87;20.73;;;;;9.10;99274.00;;;;9934479;29;20282;-80
2024/03/10 22:42:28;;;;;;;29.50;20.13;;;;;9.10;99271.00;;;;9935614;29;20241;-79
2024/03/10 22:47:29;;;;;;;29.70;21.17;;;;;9.10;99275.00;;;;9925953;29;20269;-79
2024/03/10 22:52:33;;;;;;;27.10;18.93;;;;;9.00;99275.00;;;;9933795;29;20300;-79
2024/03/10 22:57:34;;;;;;;29.77;20.83;;;;;9.00;99273.00;;;;9930675;29;20242;-79
2024/03/10 23:02:39;;;;;;;29.93;20.03;;;;;9.00;99275.00;;;;9917084;29;20242;-81
2024/03/10 23:07:45;;;;;;;27.13;20.03;;;;;9.00;99278.00;;;;9937658;29;20234;-79
2024/03/10 23:12:46;;;;;;;32.30;20.37;;;;;9.00;99284.00;;;;9918589;29;20242;-79
2024/03/10 23:17:50;;;;;;;28.47;20.20;;;;;9.00;99277.00;;;;9932319;29;20237;-76
2024/03/10 23:22:53;;;;;;;26.50;19.07;;;;;9.00;99287.00;;;;9930409;29;20264;-77
2024/03/10 23:27:54;;;;;;;29.67;21.60;;;;;8.90;99286.00;;;;9912167;29;20241;-77
2024/03/10 23:32:56;;;;;;;27.60;20.13;;;;;8.90;99292.00;;;;9926002;29;20237;-77
2024/03/10 23:37:58;;;;;;;27.90;20.40;;;;;8.80;99290.00;;;;9930655;29;20272;-78
2024/03/10 23:43:00;;;;;;;27.10;20.07;;;;;8.80;99305.00;;;;9917186;29;20250;-77
2024/03/10 23:48:01;;;;;;;27.83;20.70;;;;;8.80;99304.00;;;;9913260;29;20301;-76
2024/03/10 23:53:03;;;;;;;29.27;20.93;;;;;8.80;99309.00;;;;9945051;29;20264;-80
2024/03/10 23:58:06;;;;;;;29.87;22.20;;;;;8.80;99313.00;;;;9927611;29;21077;-76
